createdAt,value
2019-02-23T00:01:56.218Z,1.80
2019-02-23T00:04:26.905Z,1.80
2019-02-23T00:07:03.298Z,1.70
2019-02-23T00:09:34.258Z,1.70
2019-02-23T00:12:05.398Z,1.70
2019-02-23T00:14:38.412Z,1.70
2019-02-23T00:17:11.377Z,1.70
2019-02-23T00:19:47.437Z,1.70
2019-02-23T00:22:20.374Z,1.70
2019-02-23T00:24:53.202Z,1.70
2019-02-23T00:27:23.869Z,1.70
2019-02-23T00:29:54.723Z,1.70
2019-02-23T00:32:30.021Z,1.70
2019-02-23T00:35:05.760Z,1.70
2019-02-23T00:37:36.729Z,1.70
2019-02-23T00:40:07.220Z,1.70
2019-02-23T00:42:37.883Z,1.60
2019-02-23T00:45:08.342Z,1.60
2019-02-23T00:47:40.771Z,1.50
2019-02-23T00:50:15.017Z,1.50
2019-02-23T00:52:45.393Z,1.50
2019-02-23T00:55:15.827Z,1.60
2019-02-23T00:57:50.925Z,1.60
2019-02-23T01:00:21.635Z,1.50
2019-02-23T01:02:52.387Z,1.50
2019-02-23T01:05:23.341Z,1.60
2019-02-23T01:07:54.411Z,1.60
2019-02-23T01:10:26.806Z,1.60
2019-02-23T01:12:57.263Z,1.60
2019-02-23T01:15:27.899Z,1.60
2019-02-23T01:17:58.716Z,1.50
2019-02-23T01:20:29.200Z,1.60
2019-02-23T01:23:02.744Z,1.60
2019-02-23T01:25:34.786Z,1.70
2019-02-23T01:28:05.865Z,1.60
2019-02-23T01:30:36.316Z,1.60
2019-02-23T01:33:06.740Z,1.50
2019-02-23T01:35:39.584Z,1.50
2019-02-23T01:38:10.418Z,1.50
2019-02-23T01:40:43.089Z,1.50
2019-02-23T01:43:15.410Z,1.50
2019-02-23T01:45:45.866Z,1.50
2019-02-23T01:48:21.300Z,1.50
2019-02-23T01:50:54.176Z,1.40
2019-02-23T01:53:24.674Z,1.40
2019-02-23T01:55:55.253Z,1.40
2019-02-23T01:58:28.550Z,1.40
2019-02-23T02:00:58.958Z,1.30
2019-02-23T02:03:29.286Z,1.30
2019-02-23T02:06:00.031Z,1.30
2019-02-23T02:08:30.631Z,1.30
2019-02-23T02:11:01.088Z,1.30
2019-02-23T02:13:31.476Z,1.30
2019-02-23T02:16:02.238Z,1.30
2019-02-23T02:18:34.222Z,1.40
2019-02-23T02:21:04.703Z,1.40
2019-02-23T02:23:35.138Z,1.30
2019-02-23T02:26:05.654Z,1.30
2019-02-23T02:28:36.077Z,1.30
2019-02-23T02:31:07.892Z,1.30
2019-02-23T02:34:18.382Z,1.40
2019-02-23T02:36:49.054Z,1.40
2019-02-23T02:39:20.008Z,1.40
2019-02-23T02:41:50.323Z,1.30
2019-02-23T02:44:20.868Z,1.20
2019-02-23T02:46:51.286Z,1.10
2019-02-23T02:49:21.819Z,1.10
2019-02-23T02:51:53.250Z,1.00
2019-02-23T02:54:23.966Z,0.90
2019-02-23T02:56:54.365Z,0.80
2019-02-23T02:59:24.810Z,0.80
2019-02-23T03:01:55.585Z,0.80
2019-02-23T03:04:26.180Z,0.70
2019-02-23T03:06:57.337Z,0.70
2019-02-23T03:09:28.184Z,0.70
2019-02-23T03:11:59.113Z,0.60
2019-02-23T03:14:31.391Z,0.60
2019-02-23T03:17:01.740Z,0.60
2019-02-23T03:19:32.167Z,0.60
2019-02-23T03:22:02.577Z,0.50
2019-02-23T03:24:33.058Z,0.40
2019-02-23T03:27:03.851Z,0.40
2019-02-23T03:29:34.587Z,0.40
2019-02-23T03:32:05.292Z,0.40
2019-02-23T03:34:35.940Z,0.40
2019-02-23T03:37:07.473Z,0.40
2019-02-23T03:39:38.017Z,0.40
2019-02-23T03:42:08.451Z,0.50
2019-02-23T03:44:38.991Z,0.50
2019-02-23T03:47:09.413Z,0.50
2019-02-23T03:49:39.904Z,0.50
2019-02-23T03:52:10.267Z,0.60
2019-02-23T03:54:40.996Z,0.60
2019-02-23T03:57:11.368Z,0.60
2019-02-23T03:59:41.764Z,0.50
2019-02-23T04:02:12.153Z,0.60
2019-02-23T04:04:42.567Z,0.40
2019-02-23T04:07:13.003Z,0.40
2019-02-23T04:09:43.510Z,0.30
2019-02-23T04:12:14.038Z,0.20
2019-02-23T04:14:44.850Z,0.20
2019-02-23T04:17:15.241Z,0.10
2019-02-23T04:19:45.664Z,0.10
2019-02-23T04:22:16.484Z,0.10
2019-02-23T04:24:46.822Z,0.20
2019-02-23T04:27:17.562Z,0.20
2019-02-23T04:29:48.408Z,0.20
2019-02-23T04:32:18.799Z,0.20
2019-02-23T04:34:49.322Z,0.20
2019-02-23T04:37:20.224Z,0.30
2019-02-23T04:39:50.882Z,0.30
2019-02-23T04:42:21.349Z,0.30
2019-02-23T04:44:52.233Z,0.20
2019-02-23T04:47:22.718Z,0.10
2019-02-23T04:49:56.159Z,0.10
2019-02-23T04:52:27.847Z,0.00
2019-02-23T04:54:58.280Z,0.00
2019-02-23T04:57:28.974Z,0.00
2019-02-23T04:59:59.356Z,-0.10
2019-02-23T05:02:31.883Z,-0.10
2019-02-23T05:05:05.761Z,-0.10
2019-02-23T05:07:36.268Z,-0.10
2019-02-23T05:10:07.394Z,0.00
2019-02-23T05:12:37.993Z,-0.10
2019-02-23T05:15:10.116Z,-0.10
2019-02-23T05:17:41.025Z,-0.10
2019-02-23T05:20:11.451Z,-0.20
2019-02-23T05:22:42.182Z,-0.20
2019-02-23T05:25:14.128Z,-0.20
2019-02-23T05:27:46.105Z,-0.20
2019-02-23T05:30:20.025Z,-0.20
2019-02-23T05:32:50.497Z,-0.20
2019-02-23T05:35:21.014Z,-0.20
2019-02-23T05:37:51.500Z,-0.20
2019-02-23T05:40:22.260Z,-0.10
2019-02-23T05:43:01.004Z,-0.10
2019-02-23T05:45:25.122Z,-0.10
2019-02-23T05:47:55.506Z,-0.10
2019-02-23T05:50:25.886Z,-0.10
2019-02-23T05:52:56.619Z,-0.10
2019-02-23T05:55:27.033Z,0.00
2019-02-23T05:57:57.729Z,0.00
2019-02-23T06:00:28.914Z,0.00
2019-02-23T06:03:01.119Z,0.00
2019-02-23T06:05:31.925Z,-0.10
2019-02-23T06:08:02.341Z,-0.10
2019-02-23T06:10:32.732Z,-0.10
2019-02-23T06:13:03.407Z,-0.20
2019-02-23T06:15:33.849Z,-0.10
2019-02-23T06:18:04.503Z,-0.10
2019-02-23T06:20:35.134Z,-0.10
2019-02-23T06:23:05.981Z,-0.10
2019-02-23T06:25:37.505Z,-0.10
2019-02-23T06:28:07.990Z,-0.10
2019-02-23T06:30:39.177Z,-0.10
2019-02-23T06:33:10.440Z,0.10
2019-02-23T06:35:40.772Z,0.20
2019-02-23T06:38:12.472Z,0.30
2019-02-23T06:40:42.966Z,0.30
2019-02-23T06:43:13.367Z,0.30
2019-02-23T06:45:43.777Z,0.30
2019-02-23T06:48:14.202Z,0.30
2019-02-23T06:50:44.830Z,0.40
2019-02-23T06:53:15.251Z,0.40
2019-02-23T06:55:45.639Z,0.40
2019-02-23T06:58:16.373Z,0.40
2019-02-23T07:00:48.007Z,0.40
2019-02-23T07:03:22.053Z,0.40
2019-02-23T07:05:52.686Z,0.40
2019-02-23T07:08:23.365Z,0.40
2019-02-23T07:10:54.010Z,0.40
2019-02-23T07:13:24.396Z,0.40
2019-02-23T07:15:54.870Z,0.40
2019-02-23T07:18:25.633Z,0.50
2019-02-23T07:20:55.990Z,0.60
2019-02-23T07:23:26.511Z,0.60
2019-02-23T07:25:56.960Z,0.70
2019-02-23T07:28:28.698Z,0.70
2019-02-23T07:30:59.142Z,0.70
2019-02-23T07:33:33.141Z,0.70
2019-02-23T07:36:01.917Z,0.70
2019-02-23T07:38:32.322Z,0.70
2019-02-23T07:41:09.940Z,0.70
2019-02-23T07:43:40.882Z,0.70
2019-02-23T07:46:11.334Z,0.70
2019-02-23T07:48:41.722Z,0.60
2019-02-23T07:51:12.246Z,0.70
2019-02-23T07:53:43.075Z,0.70
2019-02-23T07:56:13.573Z,0.70
2019-02-23T07:58:44.067Z,0.80
2019-02-23T08:01:14.887Z,0.80
2019-02-23T08:03:48.501Z,0.80
2019-02-23T08:06:27.046Z,0.80
2019-02-23T08:08:57.643Z,0.90
2019-02-23T08:11:29.255Z,1.00
2019-02-23T08:13:59.640Z,1.00
2019-02-23T08:16:31.841Z,1.10
2019-02-23T08:19:08.333Z,1.20
2019-02-23T08:21:45.618Z,1.30
2019-02-23T08:24:19.339Z,1.40
2019-02-23T08:26:49.879Z,1.40
2019-02-23T08:29:20.410Z,1.50
2019-02-23T08:31:54.070Z,1.40
2019-02-23T08:34:28.060Z,1.40
2019-02-23T08:36:58.443Z,1.40
2019-02-23T08:39:28.844Z,1.50
2019-02-23T08:42:01.737Z,1.50
2019-02-23T08:44:33.280Z,1.60
2019-02-23T08:47:03.662Z,1.70
2019-02-23T08:49:34.754Z,1.70
2019-02-23T08:52:10.187Z,1.80
2019-02-23T08:54:40.588Z,1.90
2019-02-23T08:57:14.557Z,2.10
2019-02-23T08:59:45.061Z,2.30
2019-02-23T09:02:16.641Z,2.30
2019-02-23T09:04:49.176Z,2.40
2019-02-23T09:07:23.225Z,2.40
2019-02-23T09:09:53.863Z,2.50
2019-02-23T09:12:24.597Z,2.70
2019-02-23T09:14:55.409Z,2.80
2019-02-23T09:17:32.528Z,2.90
2019-02-23T09:20:03.159Z,3.00
2019-02-23T09:22:33.980Z,3.10
2019-02-23T09:25:04.967Z,3.20
2019-02-23T09:27:35.298Z,3.20
2019-02-23T09:30:06.113Z,3.30
2019-02-23T09:32:36.435Z,3.40
2019-02-23T09:35:07.155Z,3.50
2019-02-23T09:37:37.548Z,3.50
2019-02-23T09:40:10.031Z,3.60
2019-02-23T09:42:42.867Z,3.70
2019-02-23T09:45:13.472Z,3.80
2019-02-23T09:47:43.821Z,3.90
2019-02-23T09:50:14.190Z,3.90
2019-02-23T09:52:44.607Z,4.00
2019-02-23T09:55:15.248Z,4.00
2019-02-23T09:57:45.645Z,4.10
2019-02-23T10:00:16.074Z,4.20
2019-02-23T10:02:46.566Z,4.30
2019-02-23T10:05:16.965Z,4.30
2019-02-23T10:07:47.373Z,4.30
2019-02-23T10:10:17.758Z,4.40
2019-02-23T10:12:48.299Z,4.50
2019-02-23T10:15:18.969Z,4.50
2019-02-23T10:17:50.807Z,4.50
2019-02-23T10:20:21.066Z,4.50
2019-02-23T10:22:51.409Z,4.50
2019-02-23T10:25:21.845Z,4.60
2019-02-23T10:27:52.590Z,4.70
2019-02-23T10:30:46.629Z,4.70
2019-02-23T10:33:19.272Z,4.70
2019-02-23T10:35:49.906Z,4.70
2019-02-23T10:38:22.011Z,4.70
2019-02-23T10:40:52.321Z,4.80
2019-02-23T10:43:22.717Z,4.80
2019-02-23T10:45:53.050Z,4.90
2019-02-23T10:48:25.340Z,4.90
2019-02-23T10:50:55.714Z,5.00
2019-02-23T10:53:32.739Z,5.00
2019-02-23T10:56:00.744Z,5.00
2019-02-23T10:58:32.561Z,5.00
2019-02-23T11:01:03.084Z,5.00
2019-02-23T11:03:33.506Z,5.10
2019-02-23T11:06:04.062Z,5.20
2019-02-23T11:08:34.465Z,5.30
2019-02-23T11:11:05.193Z,5.40
2019-02-23T11:13:35.865Z,5.40
2019-02-23T11:16:06.675Z,5.50
2019-02-23T11:18:37.140Z,5.60
2019-02-23T11:21:07.756Z,5.60
2019-02-23T11:23:44.322Z,5.70
2019-02-23T11:26:10.387Z,5.70
2019-02-23T11:28:41.358Z,5.70
2019-02-23T11:31:20.017Z,5.70
2019-02-23T11:33:56.646Z,5.70
2019-02-23T11:36:27.454Z,5.80
2019-02-23T11:38:57.910Z,5.90
2019-02-23T11:41:28.258Z,6.00
2019-02-23T11:43:58.550Z,6.10
2019-02-23T11:46:30.771Z,6.10
2019-02-23T11:49:02.317Z,6.10
2019-02-23T11:51:33.990Z,6.20
2019-02-23T11:54:22.087Z,6.20
2019-02-23T11:56:57.491Z,6.30
2019-02-23T11:59:31.021Z,6.30
2019-02-23T12:02:01.473Z,6.40
2019-02-23T12:04:33.347Z,6.50
2019-02-23T12:07:03.781Z,6.50
2019-02-23T12:09:34.123Z,6.50
2019-02-23T12:12:04.652Z,6.60
2019-02-23T12:14:35.746Z,6.70
2019-02-23T12:17:08.566Z,6.60
2019-02-23T12:19:41.430Z,6.70
2019-02-23T12:22:12.692Z,6.60
2019-02-23T12:25:00.867Z,6.60
2019-02-23T12:27:37.671Z,6.60
2019-02-23T12:30:08.308Z,6.70
2019-02-23T12:32:38.707Z,6.80
2019-02-23T12:35:09.818Z,6.80
2019-02-23T12:37:40.140Z,6.80
2019-02-23T12:40:11.917Z,6.80
2019-02-23T12:42:42.921Z,6.80
2019-02-23T12:45:15.394Z,6.90
2019-02-23T12:47:45.982Z,7.00
2019-02-23T12:50:24.607Z,7.10
2019-02-23T12:53:00.160Z,7.10
2019-02-23T12:55:34.899Z,7.10
2019-02-23T12:58:10.710Z,7.10
2019-02-23T13:00:47.275Z,7.20
2019-02-23T13:03:20.872Z,7.20
2019-02-23T13:05:51.275Z,7.30
2019-02-23T13:08:21.651Z,7.30
2019-02-23T13:10:58.041Z,7.40
2019-02-23T13:14:13.291Z,7.50
2019-02-23T13:17:36.267Z,7.50
2019-02-23T13:20:56.133Z,7.50
2019-02-23T13:24:32.619Z,7.40
2019-02-23T13:27:38.420Z,7.30
2019-02-23T13:30:45.752Z,7.30
2019-02-23T13:34:20.687Z,7.40
2019-02-23T13:37:42.662Z,7.40
2019-02-23T13:41:10.578Z,7.50
2019-02-23T13:44:47.097Z,7.60
2019-02-23T13:48:07.759Z,7.50
2019-02-23T13:51:17.050Z,7.40
2019-02-23T13:54:55.138Z,7.30
2019-02-23T13:58:03.731Z,7.30
2019-02-23T14:01:37.399Z,7.40
2019-02-23T14:05:26.011Z,7.50
2019-02-23T14:08:53.036Z,7.60
2019-02-23T14:11:55.013Z,7.60
2019-02-23T14:15:32.120Z,7.50
2019-02-23T14:18:57.088Z,7.60
2019-02-23T14:22:10.765Z,7.70
2019-02-23T14:25:24.111Z,7.70
2019-02-23T14:28:40.181Z,7.60
2019-02-23T14:31:46.881Z,7.60
2019-02-23T14:35:27.662Z,7.50
2019-02-23T14:38:50.458Z,7.60
2019-02-23T14:42:33.206Z,7.40
2019-02-23T14:45:41.957Z,7.30
2019-02-23T14:49:30.463Z,7.20
2019-02-23T14:52:55.119Z,7.10
2019-02-23T14:56:17.634Z,7.10
2019-02-23T14:59:32.386Z,7.20
2019-02-23T15:03:22.058Z,7.20
2019-02-23T15:07:07.636Z,7.20
2019-02-23T15:10:21.555Z,7.10
2019-02-23T15:13:48.107Z,7.10
2019-02-23T15:17:26.847Z,7.00
2019-02-23T15:21:02.578Z,7.00
2019-02-23T15:24:37.047Z,6.90
2019-02-23T15:27:53.525Z,6.90
2019-02-23T15:30:58.807Z,6.80
2019-02-23T15:34:59.694Z,6.70
2019-02-23T15:37:50.105Z,6.70
2019-02-23T15:41:15.994Z,6.70
2019-02-23T15:44:30.040Z,6.70
2019-02-23T15:47:40.831Z,6.80
2019-02-23T15:50:26.698Z,6.70
2019-02-23T15:52:59.641Z,6.60
2019-02-23T15:55:30.152Z,6.60
2019-02-23T15:58:00.492Z,6.50
2019-02-23T16:00:37.647Z,6.50
2019-02-23T16:03:10.067Z,6.50
2019-02-23T16:05:42.874Z,6.40
2019-02-23T16:08:13.770Z,6.30
2019-02-23T16:10:47.380Z,6.30
2019-02-23T16:13:18.054Z,6.30
2019-02-23T16:15:48.538Z,6.30
2019-02-23T16:18:18.986Z,6.20
2019-02-23T16:20:50.374Z,6.20
2019-02-23T16:23:34.698Z,6.00
2019-02-23T16:25:54.852Z,6.00
2019-02-23T16:28:25.955Z,5.90
2019-02-23T16:30:57.635Z,5.90
2019-02-23T16:33:27.979Z,5.80
2019-02-23T16:35:58.937Z,5.80
2019-02-23T16:38:31.458Z,5.70
2019-02-23T16:41:01.816Z,5.70
2019-02-23T16:43:35.175Z,5.60
2019-02-23T16:46:06.112Z,5.60
2019-02-23T16:48:41.347Z,5.60
2019-02-23T16:51:22.243Z,5.50
2019-02-23T16:54:20.643Z,5.40
2019-02-23T16:56:59.194Z,5.40
2019-02-23T16:59:37.901Z,5.40
2019-02-23T17:02:15.882Z,5.40
2019-02-23T17:04:53.586Z,5.40
2019-02-23T17:07:24.121Z,5.40
2019-02-23T17:10:26.363Z,5.40
2019-02-23T17:12:56.800Z,5.40
2019-02-23T17:15:27.824Z,5.30
2019-02-23T17:18:08.271Z,5.30
2019-02-23T17:20:41.312Z,5.30
2019-02-23T17:23:11.868Z,5.20
2019-02-23T17:25:42.318Z,5.10
2019-02-23T17:28:12.918Z,5.10
2019-02-23T17:30:43.267Z,5.10
2019-02-23T17:33:13.632Z,5.10
2019-02-23T17:35:43.997Z,5.10
2019-02-23T17:38:16.367Z,5.00
2019-02-23T17:40:46.654Z,5.00
2019-02-23T17:43:18.043Z,5.00
2019-02-23T17:45:48.462Z,5.00
2019-02-23T17:48:19.144Z,5.00
2019-02-23T17:50:50.795Z,4.90
2019-02-23T17:53:21.175Z,4.90
2019-02-23T17:55:51.549Z,4.80
2019-02-23T17:58:22.278Z,4.80
2019-02-23T18:00:52.661Z,4.70
2019-02-23T18:03:23.397Z,4.60
2019-02-23T18:05:56.617Z,4.60
2019-02-23T18:08:29.204Z,4.60
2019-02-23T18:11:00.540Z,4.60
2019-02-23T18:13:31.348Z,4.60
2019-02-23T18:16:02.015Z,4.50
2019-02-23T18:18:33.832Z,4.40
2019-02-23T18:21:04.426Z,4.40
2019-02-23T18:23:37.419Z,4.40
2019-02-23T18:26:07.912Z,4.40
2019-02-23T18:28:38.373Z,4.40
2019-02-23T18:31:09.073Z,4.40
2019-02-23T18:33:39.921Z,4.40
2019-02-23T18:36:10.681Z,4.30
2019-02-23T18:38:43.913Z,4.30
2019-02-23T18:41:14.255Z,4.30
2019-02-23T18:43:44.661Z,4.30
2019-02-23T18:46:15.146Z,4.20
2019-02-23T18:48:45.611Z,4.20
2019-02-23T18:51:15.964Z,4.10
2019-02-23T18:53:46.434Z,4.00
2019-02-23T18:56:18.146Z,4.00
2019-02-23T18:58:48.582Z,4.00
2019-02-23T19:01:19.017Z,4.00
2019-02-23T19:03:49.606Z,4.00
2019-02-23T19:06:20.026Z,3.90
2019-02-23T19:08:56.446Z,3.90
2019-02-23T19:11:27.159Z,3.90
2019-02-23T19:13:59.290Z,3.90
2019-02-23T19:16:29.963Z,4.00
2019-02-23T19:19:00.628Z,4.00
2019-02-23T19:21:31.024Z,3.90
2019-02-23T19:24:01.819Z,3.90
2019-02-23T19:26:38.218Z,3.90
2019-02-23T19:29:06.881Z,3.90
2019-02-23T19:31:38.710Z,3.90
2019-02-23T19:34:09.344Z,3.90
2019-02-23T19:36:39.862Z,3.80
2019-02-23T19:39:10.336Z,3.80
2019-02-23T19:41:40.745Z,3.70
2019-02-23T19:44:11.483Z,3.70
2019-02-23T19:46:48.766Z,3.70
2019-02-23T19:49:20.024Z,3.60
2019-02-23T19:51:50.429Z,3.60
2019-02-23T19:54:21.472Z,3.60
2019-02-23T19:56:51.949Z,3.60
2019-02-23T19:59:22.310Z,3.60
2019-02-23T20:01:52.674Z,3.60
2019-02-23T20:04:23.550Z,3.50
2019-02-23T20:06:54.011Z,3.50
2019-02-23T20:09:24.439Z,3.50
2019-02-23T20:11:54.927Z,3.50
2019-02-23T20:14:27.858Z,3.40
2019-02-23T20:16:58.312Z,3.40
2019-02-23T20:19:28.947Z,3.40
2019-02-23T20:21:59.448Z,3.40
2019-02-23T20:24:29.853Z,3.40
2019-02-23T20:27:00.271Z,3.50
2019-02-23T20:29:31.129Z,3.50
2019-02-23T20:32:01.797Z,3.50
2019-02-23T20:34:33.984Z,3.50
2019-02-23T20:37:04.331Z,3.50
2019-02-23T20:39:35.021Z,3.50
2019-02-23T20:42:05.501Z,3.50
2019-02-23T20:44:36.109Z,3.50
2019-02-23T20:47:07.136Z,3.50
2019-02-23T20:49:37.580Z,3.50
2019-02-23T20:52:08.071Z,3.50
2019-02-23T20:54:38.499Z,3.50
2019-02-23T20:57:14.006Z,3.40
2019-02-23T20:59:43.563Z,3.50
2019-02-23T21:02:14.148Z,3.50
2019-02-23T21:04:44.587Z,3.50
2019-02-23T21:07:25.833Z,3.40
2019-02-23T21:09:56.231Z,3.40
2019-02-23T21:12:26.726Z,3.40
2019-02-23T21:14:58.523Z,3.30
2019-02-23T21:17:28.948Z,3.30
2019-02-23T21:19:59.844Z,3.30
2019-02-23T21:22:30.418Z,3.30
2019-02-23T21:25:00.844Z,3.30
2019-02-23T21:27:31.207Z,3.30
2019-02-23T21:30:03.662Z,3.30
2019-02-23T21:32:33.725Z,3.30
2019-02-23T21:35:04.291Z,3.30
2019-02-23T21:37:34.783Z,3.30
2019-02-23T21:40:07.624Z,3.30
2019-02-23T21:42:38.046Z,3.30
2019-02-23T21:45:10.031Z,3.30
2019-02-23T21:47:40.638Z,3.30
2019-02-23T21:50:11.048Z,3.30
2019-02-23T21:52:41.532Z,3.30
2019-02-23T21:55:12.106Z,3.30
2019-02-23T21:57:44.070Z,3.30
2019-02-23T22:00:17.253Z,3.30
2019-02-23T22:02:49.638Z,3.30
2019-02-23T22:05:20.015Z,3.30
2019-02-23T22:07:53.549Z,3.30
2019-02-23T22:10:24.787Z,3.30
2019-02-23T22:12:55.333Z,3.30
2019-02-23T22:15:25.860Z,3.40
2019-02-23T22:17:56.283Z,3.40
2019-02-23T22:20:26.797Z,3.40
2019-02-23T22:22:57.444Z,3.40
2019-02-23T22:25:28.219Z,3.40
2019-02-23T22:27:58.555Z,3.40
2019-02-23T22:30:28.921Z,3.50
2019-02-23T22:32:59.390Z,3.50
2019-02-23T22:35:29.890Z,3.50
2019-02-23T22:38:00.402Z,3.50
2019-02-23T22:40:35.312Z,3.50
2019-02-23T22:43:05.704Z,3.50
2019-02-23T22:45:36.112Z,3.50
2019-02-23T22:48:06.990Z,3.50
2019-02-23T22:50:40.527Z,3.50
2019-02-23T22:53:10.950Z,3.40
2019-02-23T22:55:41.284Z,3.40
2019-02-23T22:58:30.980Z,3.40
2019-02-23T23:01:13.044Z,3.40
2019-02-23T23:03:51.149Z,3.40
2019-02-23T23:06:25.617Z,3.40
2019-02-23T23:09:01.318Z,3.30
2019-02-23T23:11:32.415Z,3.30
2019-02-23T23:14:02.882Z,3.30
2019-02-23T23:16:36.559Z,3.30
2019-02-23T23:19:06.911Z,3.30
2019-02-23T23:21:44.872Z,3.30
2019-02-23T23:24:15.244Z,3.30
2019-02-23T23:26:45.956Z,3.20
2019-02-23T23:29:20.065Z,3.30
2019-02-23T23:31:50.466Z,3.30
2019-02-23T23:34:24.167Z,3.20
2019-02-23T23:37:11.965Z,3.20
2019-02-23T23:39:44.540Z,3.20
2019-02-23T23:42:19.434Z,3.20
2019-02-23T23:44:52.906Z,3.20
2019-02-23T23:47:23.551Z,3.20
2019-02-23T23:49:55.948Z,3.20
2019-02-23T23:52:26.362Z,3.10
2019-02-23T23:55:11.853Z,3.10
2019-02-23T23:58:44.251Z,3.10
